sensor_id;sensor_type;location;lat;lon;timestamp;P1;durP1;ratioP1;P2;durP2;ratioP2
15806;SDS011;8005;51.368;6.140;2023-02-21T00:00:14;48.53;;;24.73;;
15806;SDS011;8005;51.368;6.140;2023-02-21T00:02:05;48.20;;;24.75;;
15806;SDS011;8005;51.368;6.140;2023-02-21T00:03:56;43.88;;;23.55;;
15806;SDS011;8005;51.368;6.140;2023-02-21T00:05:46;49.38;;;23.83;;
15806;SDS011;8005;51.368;6.140;2023-02-21T00:07:37;49.38;;;25.40;;
15806;SDS011;8005;51.368;6.140;2023-02-21T00:09:28;62.50;;;27.33;;
15806;SDS011;8005;51.368;6.140;2023-02-21T00:11:19;45.65;;;23.25;;
15806;SDS011;8005;51.368;6.140;2023-02-21T00:13:09;46.65;;;24.67;;
15806;SDS011;8005;51.368;6.140;2023-02-21T00:15:00;52.97;;;25.25;;
15806;SDS011;8005;51.368;6.140;2023-02-21T00:16:52;45.85;;;24.98;;
15806;SDS011;8005;51.368;6.140;2023-02-21T00:18:42;50.50;;;24.00;;
15806;SDS011;8005;51.368;6.140;2023-02-21T00:20:32;46.22;;;25.00;;
15806;SDS011;8005;51.368;6.140;2023-02-21T00:22:23;48.45;;;25.60;;
15806;SDS011;8005;51.368;6.140;2023-02-21T00:24:15;48.22;;;24.00;;
15806;SDS011;8005;51.368;6.140;2023-02-21T00:26:07;51.92;;;25.98;;
15806;SDS011;8005;51.368;6.140;2023-02-21T00:27:59;48.13;;;24.52;;
15806;SDS011;8005;51.368;6.140;2023-02-21T00:29:50;52.53;;;26.45;;
15806;SDS011;8005;51.368;6.140;2023-02-21T00:31:41;49.65;;;26.73;;
15806;SDS011;8005;51.368;6.140;2023-02-21T00:33:34;51.78;;;25.27;;
15806;SDS011;8005;51.368;6.140;2023-02-21T00:35:26;52.07;;;26.00;;
15806;SDS011;8005;51.368;6.140;2023-02-21T00:37:18;50.15;;;26.88;;
15806;SDS011;8005;51.368;6.140;2023-02-21T00:39:09;48.78;;;25.75;;
15806;SDS011;8005;51.368;6.140;2023-02-21T00:41:00;53.60;;;27.15;;
15806;SDS011;8005;51.368;6.140;2023-02-21T00:42:51;52.10;;;26.40;;
15806;SDS011;8005;51.368;6.140;2023-02-21T00:44:41;48.83;;;25.17;;
15806;SDS011;8005;51.368;6.140;2023-02-21T00:46:33;51.72;;;27.17;;
15806;SDS011;8005;51.368;6.140;2023-02-21T00:48:24;50.70;;;25.40;;
15806;SDS011;8005;51.368;6.140;2023-02-21T00:50:15;50.35;;;26.00;;
15806;SDS011;8005;51.368;6.140;2023-02-21T00:52:06;54.28;;;25.70;;
15806;SDS011;8005;51.368;6.140;2023-02-21T00:53:57;50.13;;;26.05;;
15806;SDS011;8005;51.368;6.140;2023-02-21T00:55:48;55.17;;;26.73;;
15806;SDS011;8005;51.368;6.140;2023-02-21T00:57:39;51.88;;;25.60;;
15806;SDS011;8005;51.368;6.140;2023-02-21T01:01:23;59.78;;;26.67;;
15806;SDS011;8005;51.368;6.140;2023-02-21T01:03:14;53.47;;;26.92;;
15806;SDS011;8005;51.368;6.140;2023-02-21T01:05:05;49.72;;;26.13;;
15806;SDS011;8005;51.368;6.140;2023-02-21T01:06:55;49.30;;;25.48;;
15806;SDS011;8005;51.368;6.140;2023-02-21T01:08:46;51.67;;;26.35;;
15806;SDS011;8005;51.368;6.140;2023-02-21T01:10:37;50.72;;;26.15;;
15806;SDS011;8005;51.368;6.140;2023-02-21T01:12:28;53.10;;;27.38;;
15806;SDS011;8005;51.368;6.140;2023-02-21T01:14:21;56.27;;;26.17;;
15806;SDS011;8005;51.368;6.140;2023-02-21T01:16:11;53.97;;;25.73;;
15806;SDS011;8005;51.368;6.140;2023-02-21T01:18:02;53.75;;;26.80;;
15806;SDS011;8005;51.368;6.140;2023-02-21T01:19:56;45.92;;;24.65;;
15806;SDS011;8005;51.368;6.140;2023-02-21T01:21:47;54.40;;;27.45;;
15806;SDS011;8005;51.368;6.140;2023-02-21T01:23:37;49.38;;;26.70;;
15806;SDS011;8005;51.368;6.140;2023-02-21T01:25:28;50.83;;;26.65;;
15806;SDS011;8005;51.368;6.140;2023-02-21T01:27:18;50.70;;;25.58;;
15806;SDS011;8005;51.368;6.140;2023-02-21T01:29:09;52.40;;;26.75;;
15806;SDS011;8005;51.368;6.140;2023-02-21T01:31:00;48.08;;;25.15;;
15806;SDS011;8005;51.368;6.140;2023-02-21T01:32:51;50.78;;;27.40;;
15806;SDS011;8005;51.368;6.140;2023-02-21T01:34:43;54.60;;;26.65;;
15806;SDS011;8005;51.368;6.140;2023-02-21T01:36:34;56.35;;;26.80;;
15806;SDS011;8005;51.368;6.140;2023-02-21T01:38:25;52.00;;;26.45;;
15806;SDS011;8005;51.368;6.140;2023-02-21T01:40:16;55.47;;;29.70;;
15806;SDS011;8005;51.368;6.140;2023-02-21T01:42:08;62.38;;;30.00;;
15806;SDS011;8005;51.368;6.140;2023-02-21T01:44:05;51.67;;;26.35;;
15806;SDS011;8005;51.368;6.140;2023-02-21T01:45:58;56.08;;;27.73;;
15806;SDS011;8005;51.368;6.140;2023-02-21T01:47:49;54.88;;;27.40;;
15806;SDS011;8005;51.368;6.140;2023-02-21T01:49:40;58.45;;;28.35;;
15806;SDS011;8005;51.368;6.140;2023-02-21T01:51:32;55.05;;;26.42;;
15806;SDS011;8005;51.368;6.140;2023-02-21T01:53:26;59.28;;;29.20;;
15806;SDS011;8005;51.368;6.140;2023-02-21T01:55:17;54.33;;;28.00;;
15806;SDS011;8005;51.368;6.140;2023-02-21T01:57:09;60.83;;;29.10;;
15806;SDS011;8005;51.368;6.140;2023-02-21T01:59:00;55.65;;;28.05;;
15806;SDS011;8005;51.368;6.140;2023-02-21T02:00:51;49.42;;;25.70;;
15806;SDS011;8005;51.368;6.140;2023-02-21T02:04:51;60.95;;;29.77;;
15806;SDS011;8005;51.368;6.140;2023-02-21T02:06:42;56.33;;;27.70;;
15806;SDS011;8005;51.368;6.140;2023-02-21T02:08:35;57.97;;;28.13;;
15806;SDS011;8005;51.368;6.140;2023-02-21T02:10:27;54.47;;;27.77;;
15806;SDS011;8005;51.368;6.140;2023-02-21T02:12:35;58.90;;;28.92;;
15806;SDS011;8005;51.368;6.140;2023-02-21T02:14:47;61.47;;;28.80;;
15806;SDS011;8005;51.368;6.140;2023-02-21T02:16:28;64.57;;;30.88;;
15806;SDS011;8005;51.368;6.140;2023-02-21T02:30:51;65.88;;;30.48;;
15806;SDS011;8005;51.368;6.140;2023-02-21T02:36:23;73.13;;;32.78;;
15806;SDS011;8005;51.368;6.140;2023-02-21T02:40:12;65.93;;;30.05;;
15806;SDS011;8005;51.368;6.140;2023-02-21T02:44:00;72.50;;;31.63;;
15806;SDS011;8005;51.368;6.140;2023-02-21T02:45:43;63.70;;;28.73;;
15806;SDS011;8005;51.368;6.140;2023-02-21T02:47:34;75.13;;;32.50;;
15806;SDS011;8005;51.368;6.140;2023-02-21T02:49:35;66.47;;;30.33;;
15806;SDS011;8005;51.368;6.140;2023-02-21T02:51:35;69.57;;;31.02;;
15806;SDS011;8005;51.368;6.140;2023-02-21T02:53:26;67.60;;;30.90;;
15806;SDS011;8005;51.368;6.140;2023-02-21T02:55:03;67.55;;;30.70;;
15806;SDS011;8005;51.368;6.140;2023-02-21T02:56:55;67.78;;;30.45;;
15806;SDS011;8005;51.368;6.140;2023-02-21T02:58:29;72.95;;;30.27;;
15806;SDS011;8005;51.368;6.140;2023-02-21T03:00:06;60.78;;;28.92;;
15806;SDS011;8005;51.368;6.140;2023-02-21T03:11:16;66.75;;;30.15;;
15806;SDS011;8005;51.368;6.140;2023-02-21T03:13:00;69.38;;;30.95;;
15806;SDS011;8005;51.368;6.140;2023-02-21T03:14:45;67.68;;;29.75;;
15806;SDS011;8005;51.368;6.140;2023-02-21T03:16:27;72.25;;;30.70;;
15806;SDS011;8005;51.368;6.140;2023-02-21T03:18:04;76.13;;;30.77;;
15806;SDS011;8005;51.368;6.140;2023-02-21T03:19:43;70.47;;;31.52;;
15806;SDS011;8005;51.368;6.140;2023-02-21T03:21:26;66.63;;;29.67;;
15806;SDS011;8005;51.368;6.140;2023-02-21T03:23:00;71.32;;;30.52;;
15806;SDS011;8005;51.368;6.140;2023-02-21T03:24:33;71.70;;;32.40;;
15806;SDS011;8005;51.368;6.140;2023-02-21T03:26:07;70.88;;;32.38;;
15806;SDS011;8005;51.368;6.140;2023-02-21T03:27:44;73.28;;;32.20;;
15806;SDS011;8005;51.368;6.140;2023-02-21T03:29:24;73.03;;;33.92;;
15806;SDS011;8005;51.368;6.140;2023-02-21T03:30:57;77.90;;;32.05;;
15806;SDS011;8005;51.368;6.140;2023-02-21T03:32:45;73.28;;;33.05;;
15806;SDS011;8005;51.368;6.140;2023-02-21T03:34:19;76.78;;;33.30;;
15806;SDS011;8005;51.368;6.140;2023-02-21T03:37:37;72.05;;;30.17;;
15806;SDS011;8005;51.368;6.140;2023-02-21T03:39:12;76.32;;;32.10;;
15806;SDS011;8005;51.368;6.140;2023-02-21T03:40:47;78.45;;;32.92;;
15806;SDS011;8005;51.368;6.140;2023-02-21T03:42:19;78.10;;;32.63;;
15806;SDS011;8005;51.368;6.140;2023-02-21T03:43:51;77.87;;;32.67;;
15806;SDS011;8005;51.368;6.140;2023-02-21T03:45:23;73.83;;;31.70;;
15806;SDS011;8005;51.368;6.140;2023-02-21T03:47:08;70.93;;;30.77;;
15806;SDS011;8005;51.368;6.140;2023-02-21T03:48:40;76.38;;;31.58;;
15806;SDS011;8005;51.368;6.140;2023-02-21T03:50:20;77.00;;;32.22;;
15806;SDS011;8005;51.368;6.140;2023-02-21T03:51:52;77.47;;;32.77;;
15806;SDS011;8005;51.368;6.140;2023-02-21T03:53:25;76.95;;;32.38;;
15806;SDS011;8005;51.368;6.140;2023-02-21T03:54:57;70.95;;;31.10;;
15806;SDS011;8005;51.368;6.140;2023-02-21T03:56:29;77.43;;;31.98;;
15806;SDS011;8005;51.368;6.140;2023-02-21T03:58:21;73.45;;;31.85;;
15806;SDS011;8005;51.368;6.140;2023-02-21T03:59:54;73.78;;;31.35;;
15806;SDS011;8005;51.368;6.140;2023-02-21T04:01:26;76.07;;;33.00;;
15806;SDS011;8005;51.368;6.140;2023-02-21T04:02:59;77.45;;;33.28;;
15806;SDS011;8005;51.368;6.140;2023-02-21T04:04:36;75.65;;;31.92;;
15806;SDS011;8005;51.368;6.140;2023-02-21T04:06:11;79.70;;;32.33;;
15806;SDS011;8005;51.368;6.140;2023-02-21T04:07:43;77.53;;;31.40;;
15806;SDS011;8005;51.368;6.140;2023-02-21T04:09:16;83.20;;;33.17;;
15806;SDS011;8005;51.368;6.140;2023-02-21T04:10:48;71.32;;;30.23;;
15806;SDS011;8005;51.368;6.140;2023-02-21T04:12:25;77.82;;;31.15;;
15806;SDS011;8005;51.368;6.140;2023-02-21T04:13:57;79.53;;;31.43;;
15806;SDS011;8005;51.368;6.140;2023-02-21T04:15:30;79.75;;;30.40;;
15806;SDS011;8005;51.368;6.140;2023-02-21T04:17:02;83.82;;;32.08;;
15806;SDS011;8005;51.368;6.140;2023-02-21T04:18:34;63.65;;;25.38;;
15806;SDS011;8005;51.368;6.140;2023-02-21T04:20:19;80.18;;;31.52;;
15806;SDS011;8005;51.368;6.140;2023-02-21T04:22:06;82.35;;;31.83;;
15806;SDS011;8005;51.368;6.140;2023-02-21T04:23:39;82.93;;;31.70;;
15806;SDS011;8005;51.368;6.140;2023-02-21T04:25:13;82.22;;;33.35;;
15806;SDS011;8005;51.368;6.140;2023-02-21T04:27:11;79.43;;;31.00;;
15806;SDS011;8005;51.368;6.140;2023-02-21T04:28:59;80.80;;;31.95;;
15806;SDS011;8005;51.368;6.140;2023-02-21T04:30:32;85.25;;;32.20;;
15806;SDS011;8005;51.368;6.140;2023-02-21T04:32:04;83.05;;;33.40;;
15806;SDS011;8005;51.368;6.140;2023-02-21T04:35:10;77.03;;;30.17;;
15806;SDS011;8005;51.368;6.140;2023-02-21T04:36:43;81.60;;;31.55;;
15806;SDS011;8005;51.368;6.140;2023-02-21T04:38:15;87.50;;;31.92;;
15806;SDS011;8005;51.368;6.140;2023-02-21T04:39:47;84.18;;;31.40;;
15806;SDS011;8005;51.368;6.140;2023-02-21T04:41:20;75.40;;;30.25;;
15806;SDS011;8005;51.368;6.140;2023-02-21T04:42:52;84.88;;;30.77;;
15806;SDS011;8005;51.368;6.140;2023-02-21T04:44:24;86.57;;;35.00;;
15806;SDS011;8005;51.368;6.140;2023-02-21T04:46:04;82.35;;;33.25;;
15806;SDS011;8005;51.368;6.140;2023-02-21T04:47:46;79.55;;;31.35;;
15806;SDS011;8005;51.368;6.140;2023-02-21T04:49:19;83.25;;;32.13;;
15806;SDS011;8005;51.368;6.140;2023-02-21T04:50:51;87.85;;;34.55;;
15806;SDS011;8005;51.368;6.140;2023-02-21T04:53:56;81.85;;;31.75;;
15806;SDS011;8005;51.368;6.140;2023-02-21T04:55:28;85.40;;;30.80;;
15806;SDS011;8005;51.368;6.140;2023-02-21T04:57:03;82.80;;;32.90;;
15806;SDS011;8005;51.368;6.140;2023-02-21T04:58:35;77.57;;;32.38;;
15806;SDS011;8005;51.368;6.140;2023-02-21T05:00:21;90.00;;;33.45;;
15806;SDS011;8005;51.368;6.140;2023-02-21T05:01:55;84.28;;;32.90;;
15806;SDS011;8005;51.368;6.140;2023-02-21T05:05:36;93.13;;;33.17;;
15806;SDS011;8005;51.368;6.140;2023-02-21T05:07:08;85.60;;;34.00;;
15806;SDS011;8005;51.368;6.140;2023-02-21T05:08:41;93.25;;;33.08;;
15806;SDS011;8005;51.368;6.140;2023-02-21T05:10:16;96.65;;;34.25;;
15806;SDS011;8005;51.368;6.140;2023-02-21T05:13:21;93.57;;;31.92;;
15806;SDS011;8005;51.368;6.140;2023-02-21T05:15:19;90.55;;;32.88;;
15806;SDS011;8005;51.368;6.140;2023-02-21T05:16:51;81.60;;;31.85;;
15806;SDS011;8005;51.368;6.140;2023-02-21T05:18:26;92.65;;;33.45;;
15806;SDS011;8005;51.368;6.140;2023-02-21T05:20:00;91.43;;;34.25;;
15806;SDS011;8005;51.368;6.140;2023-02-21T05:22:03;97.78;;;34.40;;
15806;SDS011;8005;51.368;6.140;2023-02-21T05:26:50;90.25;;;33.03;;
15806;SDS011;8005;51.368;6.140;2023-02-21T05:28:33;102.30;;;34.33;;
15806;SDS011;8005;51.368;6.140;2023-02-21T05:30:29;92.43;;;33.80;;
15806;SDS011;8005;51.368;6.140;2023-02-21T05:32:22;91.47;;;33.38;;
15806;SDS011;8005;51.368;6.140;2023-02-21T05:33:54;92.20;;;34.22;;
15806;SDS011;8005;51.368;6.140;2023-02-21T05:35:26;103.10;;;34.73;;
15806;SDS011;8005;51.368;6.140;2023-02-21T05:36:59;95.57;;;33.70;;
15806;SDS011;8005;51.368;6.140;2023-02-21T05:38:31;100.37;;;33.80;;
15806;SDS011;8005;51.368;6.140;2023-02-21T05:40:05;101.03;;;34.33;;
15806;SDS011;8005;51.368;6.140;2023-02-21T05:41:38;93.78;;;33.05;;
15806;SDS011;8005;51.368;6.140;2023-02-21T05:43:10;97.68;;;33.28;;
15806;SDS011;8005;51.368;6.140;2023-02-21T05:44:44;95.88;;;34.05;;
15806;SDS011;8005;51.368;6.140;2023-02-21T05:46:35;91.25;;;32.67;;
15806;SDS011;8005;51.368;6.140;2023-02-21T05:48:07;89.25;;;32.83;;
15806;SDS011;8005;51.368;6.140;2023-02-21T05:49:39;102.28;;;34.95;;
15806;SDS011;8005;51.368;6.140;2023-02-21T05:51:14;104.15;;;34.47;;
15806;SDS011;8005;51.368;6.140;2023-02-21T05:52:47;96.32;;;32.88;;
15806;SDS011;8005;51.368;6.140;2023-02-21T05:54:20;90.43;;;32.80;;
15806;SDS011;8005;51.368;6.140;2023-02-21T05:55:52;97.07;;;32.60;;
15806;SDS011;8005;51.368;6.140;2023-02-21T05:57:24;96.18;;;33.55;;
15806;SDS011;8005;51.368;6.140;2023-02-21T05:58:56;107.35;;;35.75;;
15806;SDS011;8005;51.368;6.140;2023-02-21T06:00:32;92.85;;;33.53;;
15806;SDS011;8005;51.368;6.140;2023-02-21T06:02:16;99.75;;;33.50;;
15806;SDS011;8005;51.368;6.140;2023-02-21T06:03:50;101.32;;;32.92;;
15806;SDS011;8005;51.368;6.140;2023-02-21T06:05:23;102.40;;;32.33;;
15806;SDS011;8005;51.368;6.140;2023-02-21T06:06:57;104.53;;;32.13;;
15806;SDS011;8005;51.368;6.140;2023-02-21T06:08:41;103.50;;;34.72;;
15806;SDS011;8005;51.368;6.140;2023-02-21T06:10:16;91.85;;;31.60;;
15806;SDS011;8005;51.368;6.140;2023-02-21T06:13:21;95.20;;;32.20;;
15806;SDS011;8005;51.368;6.140;2023-02-21T06:14:53;104.78;;;34.67;;
15806;SDS011;8005;51.368;6.140;2023-02-21T06:16:31;94.80;;;32.35;;
15806;SDS011;8005;51.368;6.140;2023-02-21T06:18:05;101.65;;;33.47;;
15806;SDS011;8005;51.368;6.140;2023-02-21T06:19:48;101.72;;;34.17;;
15806;SDS011;8005;51.368;6.140;2023-02-21T06:22:05;98.88;;;33.35;;
15806;SDS011;8005;51.368;6.140;2023-02-21T06:27:21;100.03;;;31.77;;
15806;SDS011;8005;51.368;6.140;2023-02-21T06:33:15;100.97;;;30.58;;
15806;SDS011;8005;51.368;6.140;2023-02-21T06:34:47;98.93;;;32.05;;
15806;SDS011;8005;51.368;6.140;2023-02-21T06:36:21;94.55;;;30.35;;
15806;SDS011;8005;51.368;6.140;2023-02-21T06:37:57;96.00;;;30.13;;
15806;SDS011;8005;51.368;6.140;2023-02-21T06:39:45;97.18;;;31.77;;
15806;SDS011;8005;51.368;6.140;2023-02-21T06:41:34;96.28;;;31.85;;
15806;SDS011;8005;51.368;6.140;2023-02-21T06:43:06;103.63;;;31.50;;
15806;SDS011;8005;51.368;6.140;2023-02-21T06:44:38;94.20;;;30.10;;
15806;SDS011;8005;51.368;6.140;2023-02-21T06:46:16;101.22;;;33.17;;
15806;SDS011;8005;51.368;6.140;2023-02-21T06:47:52;94.15;;;31.55;;
15806;SDS011;8005;51.368;6.140;2023-02-21T06:49:33;96.20;;;32.80;;
15806;SDS011;8005;51.368;6.140;2023-02-21T06:51:07;98.65;;;31.77;;
15806;SDS011;8005;51.368;6.140;2023-02-21T06:52:41;102.60;;;33.28;;
15806;SDS011;8005;51.368;6.140;2023-02-21T06:56:03;101.72;;;32.25;;
15806;SDS011;8005;51.368;6.140;2023-02-21T06:57:36;100.95;;;32.03;;
15806;SDS011;8005;51.368;6.140;2023-02-21T06:59:15;99.32;;;32.28;;
15806;SDS011;8005;51.368;6.140;2023-02-21T07:40:30;93.03;;;30.50;;
15806;SDS011;8005;51.368;6.140;2023-02-21T07:48:45;84.10;;;25.92;;
15806;SDS011;8005;51.368;6.140;2023-02-21T07:54:27;81.43;;;25.20;;
15806;SDS011;8005;51.368;6.140;2023-02-21T07:56:03;86.47;;;25.85;;
15806;SDS011;8005;51.368;6.140;2023-02-21T22:10:43;52.20;;;23.08;;
15806;SDS011;8005;51.368;6.140;2023-02-21T23:28:55;87.00;;;33.85;;
15806;SDS011;8005;51.368;6.140;2023-02-21T23:30:31;78.05;;;32.13;;
